createdAt,value
2023-05-04T00:00:53.941Z,84.63
2023-05-04T00:03:21.833Z,84.46
2023-05-04T00:05:49.499Z,84.45
2023-05-04T00:08:17.660Z,84.66
2023-05-04T00:10:45.321Z,85.17
2023-05-04T00:13:12.965Z,85.31
2023-05-04T00:15:42.231Z,85.80
2023-05-04T00:18:09.789Z,86.51
2023-05-04T00:20:37.408Z,86.54
2023-05-04T00:23:04.992Z,86.22
2023-05-04T00:25:32.853Z,86.85
2023-05-04T00:28:00.730Z,86.96
2023-05-04T00:30:30.817Z,87.27
2023-05-04T00:32:59.900Z,87.18
2023-05-04T00:35:27.513Z,87.37
2023-05-04T00:37:55.367Z,87.15
2023-05-04T00:40:23.187Z,87.39
2023-05-04T00:42:50.890Z,87.43
2023-05-04T00:45:19.095Z,88.21
2023-05-04T00:47:46.741Z,88.31
2023-05-04T00:50:15.698Z,88.31
2023-05-04T00:52:45.050Z,88.43
2023-05-04T00:55:14.347Z,88.93
2023-05-04T00:57:42.620Z,88.83
2023-05-04T01:00:13.133Z,88.62
2023-05-04T01:02:41.113Z,88.83
2023-05-04T01:05:09.947Z,88.74
2023-05-04T01:07:45.302Z,88.88
2023-05-04T01:10:18.720Z,89.38
2023-05-04T01:12:53.125Z,89.30
2023-05-04T01:15:21.575Z,89.76
2023-05-04T01:17:49.473Z,90.03
2023-05-04T01:20:17.393Z,90.22
2023-05-04T01:22:46.512Z,90.22
2023-05-04T01:25:14.195Z,89.66
2023-05-04T01:27:47.954Z,90.01
2023-05-04T01:30:19.873Z,89.91
2023-05-04T01:32:49.293Z,89.82
2023-05-04T01:35:17.155Z,89.81
2023-05-04T01:37:48.746Z,90.04
2023-05-04T01:40:16.618Z,90.03
2023-05-04T01:42:44.114Z,90.05
2023-05-04T01:45:13.512Z,90.17
2023-05-04T01:47:41.724Z,90.20
2023-05-04T01:50:09.822Z,90.09
2023-05-04T01:52:37.478Z,90.26
2023-05-04T01:55:07.952Z,90.14
2023-05-04T01:57:35.559Z,89.94
2023-05-04T02:00:03.905Z,89.77
2023-05-04T02:02:43.269Z,88.92
2023-05-04T02:05:12.856Z,88.98
2023-05-04T02:07:40.448Z,90.15
2023-05-04T02:10:10.694Z,90.07
2023-05-04T02:12:38.421Z,88.91
2023-05-04T02:15:06.902Z,88.18
2023-05-04T02:17:34.690Z,88.49
2023-05-04T02:20:04.637Z,88.83
2023-05-04T02:22:32.636Z,88.88
2023-05-04T02:25:00.161Z,88.85
2023-05-04T02:27:28.997Z,88.67
2023-05-04T02:29:58.336Z,89.13
2023-05-04T02:32:26.289Z,89.65
2023-05-04T02:34:54.231Z,89.57
2023-05-04T02:37:22.320Z,89.90
2023-05-04T02:39:50.006Z,91.05
2023-05-04T02:42:17.762Z,90.90
2023-05-04T02:44:46.681Z,90.33
2023-05-04T02:47:14.210Z,90.65
2023-05-04T02:53:54.089Z,90.49
2023-05-04T02:56:21.808Z,90.17
2023-05-04T02:58:49.387Z,90.67
2023-05-04T03:01:18.347Z,90.44
2023-05-04T03:03:46.091Z,90.52
2023-05-04T03:06:13.735Z,90.08
2023-05-04T03:08:41.280Z,90.32
2023-05-04T03:11:08.947Z,90.40
2023-05-04T03:13:36.563Z,89.86
2023-05-04T03:16:05.496Z,89.42
2023-05-04T03:21:20.227Z,89.54
2023-05-04T03:23:48.932Z,90.12
2023-05-04T03:26:17.395Z,90.27
2023-05-04T03:28:45.431Z,90.18
2023-05-04T03:31:13.036Z,89.73
2023-05-04T03:33:42.407Z,89.87
2023-05-04T03:36:10.276Z,90.12
2023-05-04T03:38:39.669Z,89.69
2023-05-04T03:41:07.444Z,90.12
2023-05-04T03:43:35.021Z,90.58
2023-05-04T03:46:02.996Z,90.98
2023-05-04T03:48:30.602Z,90.67
2023-05-04T03:50:59.625Z,90.62
2023-05-04T03:53:27.368Z,90.57
2023-05-04T03:55:55.065Z,90.01
2023-05-04T03:58:22.979Z,90.74
2023-05-04T04:00:50.558Z,90.63
2023-05-04T04:03:19.046Z,91.09
2023-05-04T04:05:46.746Z,90.50
2023-05-04T04:08:15.671Z,90.91
2023-05-04T04:10:43.455Z,91.26
2023-05-04T04:13:11.167Z,91.13
2023-05-04T04:15:38.874Z,90.99
2023-05-04T04:18:06.793Z,90.86
2023-05-04T04:20:34.423Z,90.14
2023-05-04T04:23:01.978Z,90.13
2023-05-04T04:25:31.508Z,89.44
2023-05-04T04:27:59.103Z,89.58
2023-05-04T04:30:26.607Z,89.14
2023-05-04T04:32:56.904Z,88.60
2023-05-04T04:35:24.616Z,89.04
2023-05-04T04:37:52.232Z,89.17
2023-05-04T04:40:19.770Z,89.58
2023-05-04T04:42:48.764Z,90.09
2023-05-04T04:45:16.390Z,88.93
2023-05-04T04:47:45.135Z,89.12
2023-05-04T04:50:13.136Z,89.11
2023-05-04T04:52:41.358Z,89.41
2023-05-04T04:55:09.754Z,89.24
2023-05-04T04:57:37.337Z,88.87
2023-05-04T05:00:09.414Z,89.42
2023-05-04T05:02:37.568Z,89.32
2023-05-04T05:05:05.940Z,88.55
2023-05-04T05:07:33.923Z,89.21
2023-05-04T05:10:01.582Z,89.34
2023-05-04T05:12:29.457Z,89.18
2023-05-04T05:14:57.105Z,89.09
2023-05-04T05:17:27.530Z,89.04
2023-05-04T05:19:55.117Z,88.72
2023-05-04T05:22:22.736Z,88.97
2023-05-04T05:24:50.266Z,88.93
2023-05-04T05:27:18.083Z,88.72
2023-05-04T05:29:45.661Z,88.53
2023-05-04T05:32:13.347Z,88.53
2023-05-04T05:34:42.640Z,88.34
2023-05-04T05:37:10.514Z,88.07
2023-05-04T05:39:38.100Z,88.12
2023-05-04T05:42:06.007Z,88.49
2023-05-04T05:44:37.302Z,88.97
2023-05-04T05:47:04.946Z,88.15
2023-05-04T05:49:32.798Z,88.35
2023-05-04T05:52:02.173Z,88.04
2023-05-04T05:54:30.845Z,87.86
2023-05-04T05:56:58.595Z,87.82
2023-05-04T05:59:26.217Z,87.06
2023-05-04T06:01:53.934Z,86.09
2023-05-04T06:04:21.567Z,85.75
2023-05-04T06:06:49.269Z,86.34
2023-05-04T06:09:18.209Z,86.42
2023-05-04T06:11:46.138Z,86.78
2023-05-04T06:14:13.672Z,84.99
2023-05-04T06:16:41.380Z,83.34
2023-05-04T06:19:09.099Z,82.31
2023-05-04T06:21:36.843Z,81.88
2023-05-04T06:24:04.740Z,81.44
2023-05-04T06:26:33.718Z,80.67
2023-05-04T06:29:01.312Z,80.00
2023-05-04T06:31:29.006Z,79.50
2023-05-04T06:33:57.691Z,77.98
2023-05-04T06:36:26.060Z,78.75
2023-05-04T06:38:55.582Z,77.62
2023-05-04T06:41:23.348Z,76.24
2023-05-04T06:43:52.245Z,77.02
2023-05-04T06:46:20.168Z,77.08
2023-05-04T06:48:47.794Z,75.87
2023-05-04T06:51:16.058Z,75.36
2023-05-04T06:53:43.639Z,74.93
2023-05-04T06:56:11.260Z,74.00
2023-05-04T06:58:38.905Z,73.03
2023-05-04T07:01:09.823Z,72.46
2023-05-04T07:03:38.750Z,71.52
2023-05-04T07:06:06.377Z,71.86
2023-05-04T07:08:34.719Z,70.70
2023-05-04T07:11:02.580Z,70.47
2023-05-04T07:13:30.257Z,70.66
2023-05-04T07:15:57.945Z,69.93
2023-05-04T07:18:26.909Z,69.23
2023-05-04T07:20:58.841Z,68.80
2023-05-04T07:23:33.827Z,68.58
2023-05-04T07:26:01.783Z,67.83
2023-05-04T07:28:29.398Z,68.14
2023-05-04T07:30:56.996Z,67.59
2023-05-04T07:33:25.621Z,66.53
2023-05-04T07:35:59.373Z,65.84
2023-05-04T07:38:27.355Z,65.49
2023-05-04T07:40:55.466Z,65.34
2023-05-04T07:43:23.332Z,65.51
2023-05-04T07:45:53.285Z,64.92
2023-05-04T07:48:21.199Z,64.09
2023-05-04T07:50:50.306Z,63.80
2023-05-04T07:53:20.659Z,62.69
2023-05-04T07:55:48.588Z,63.38
2023-05-04T07:58:16.691Z,63.42
2023-05-04T08:00:44.556Z,63.47
2023-05-04T08:03:12.237Z,64.14
2023-05-04T08:05:39.874Z,64.89
2023-05-04T08:08:09.290Z,64.82
2023-05-04T08:10:38.655Z,61.66
2023-05-04T08:13:06.658Z,61.12
2023-05-04T08:15:34.294Z,61.44
2023-05-04T08:18:02.050Z,62.10
2023-05-04T08:20:29.921Z,61.24
2023-05-04T08:22:57.935Z,60.42
2023-05-04T08:25:25.555Z,60.77
2023-05-04T08:27:54.537Z,60.91
2023-05-04T08:30:22.302Z,59.80
2023-05-04T08:32:51.109Z,60.96
2023-05-04T08:35:18.894Z,60.94
2023-05-04T08:37:46.587Z,61.92
2023-05-04T08:40:15.293Z,58.72
2023-05-04T08:42:47.904Z,59.57
2023-05-04T08:45:17.327Z,58.92
2023-05-04T08:47:45.418Z,57.90
2023-05-04T08:50:13.599Z,58.15
2023-05-04T08:52:46.145Z,59.71
2023-05-04T08:55:14.966Z,58.73
2023-05-04T08:57:44.378Z,58.63
2023-05-04T09:00:13.436Z,58.04
2023-05-04T09:02:42.734Z,59.20
2023-05-04T09:05:12.010Z,58.75
2023-05-04T09:07:39.627Z,57.17
2023-05-04T09:10:08.479Z,55.74
2023-05-04T09:12:37.561Z,56.34
2023-05-04T09:15:16.569Z,55.74
2023-05-04T09:17:57.831Z,54.51
2023-05-04T09:20:26.611Z,55.16
2023-05-04T09:23:06.929Z,55.24
2023-05-04T09:25:35.247Z,53.67
2023-05-04T09:28:02.821Z,54.74
2023-05-04T09:30:30.361Z,54.86
2023-05-04T09:32:59.372Z,53.56
2023-05-04T09:35:33.531Z,55.15
2023-05-04T09:38:02.230Z,54.07
2023-05-04T09:40:33.565Z,54.13
2023-05-04T09:43:01.287Z,53.85
2023-05-04T09:45:39.906Z,53.12
2023-05-04T09:48:19.042Z,52.31
2023-05-04T09:50:52.873Z,52.09
2023-05-04T09:53:23.204Z,51.06
2023-05-04T09:55:59.994Z,50.68
2023-05-04T09:58:31.149Z,51.56
2023-05-04T10:01:01.839Z,50.15
2023-05-04T10:03:31.698Z,49.52
2023-05-04T10:06:00.176Z,48.86
2023-05-04T10:08:28.498Z,49.39
2023-05-04T10:10:56.140Z,51.11
2023-05-04T10:13:24.181Z,48.18
2023-05-04T10:16:12.986Z,49.18
2023-05-04T10:19:02.246Z,48.05
2023-05-04T10:21:33.971Z,46.73
2023-05-04T10:24:31.160Z,46.08
2023-05-04T10:27:08.206Z,46.50
2023-05-04T10:29:36.052Z,44.33
2023-05-04T10:32:04.030Z,44.35
2023-05-04T10:34:34.609Z,46.47
2023-05-04T10:37:03.466Z,43.62
2023-05-04T10:39:32.816Z,42.75
2023-05-04T10:42:02.738Z,44.41
2023-05-04T10:44:31.449Z,43.12
2023-05-04T10:47:00.655Z,44.22
2023-05-04T10:49:28.452Z,43.31
2023-05-04T10:52:08.615Z,42.20
2023-05-04T10:54:37.044Z,42.57
2023-05-04T10:57:06.585Z,42.82
2023-05-04T10:59:36.608Z,41.13
2023-05-04T11:02:06.471Z,41.90
2023-05-04T11:04:34.564Z,40.71
2023-05-04T11:07:04.878Z,40.76
2023-05-04T11:09:38.843Z,39.61
2023-05-04T11:12:10.260Z,37.84
2023-05-04T11:14:42.275Z,38.83
2023-05-04T11:17:26.817Z,38.80
2023-05-04T11:19:54.886Z,38.61
2023-05-04T11:22:22.890Z,38.41
2023-05-04T11:24:52.818Z,36.72
2023-05-04T11:27:22.391Z,36.86
2023-05-04T11:29:56.864Z,36.61
2023-05-04T11:32:34.834Z,36.21
2023-05-04T11:35:02.764Z,37.46
2023-05-04T11:37:31.336Z,35.56
2023-05-04T11:40:00.495Z,34.50
2023-05-04T11:42:28.286Z,35.69
2023-05-04T11:44:56.909Z,35.22
2023-05-04T11:47:26.368Z,33.70
2023-05-04T11:49:54.294Z,34.06
2023-05-04T11:52:23.695Z,34.36
2023-05-04T11:54:56.815Z,31.78
2023-05-04T11:57:25.657Z,31.85
2023-05-04T11:59:53.212Z,30.87
2023-05-04T12:02:21.359Z,29.61
2023-05-04T12:04:48.978Z,29.51
2023-05-04T12:07:16.801Z,28.63
2023-05-04T12:09:45.391Z,29.47
2023-05-04T12:12:13.116Z,28.79
2023-05-04T12:14:50.127Z,28.63
2023-05-04T12:17:17.665Z,27.91
2023-05-04T12:19:50.510Z,27.78
2023-05-04T12:22:18.360Z,26.82
2023-05-04T12:24:45.937Z,26.90
2023-05-04T12:27:14.092Z,27.96
2023-05-04T12:29:41.719Z,29.11
2023-05-04T12:32:10.624Z,26.84
2023-05-04T12:34:38.333Z,27.83
2023-05-04T12:37:06.169Z,26.24
2023-05-04T12:39:34.264Z,26.21
2023-05-04T12:42:02.059Z,24.71
2023-05-04T12:44:29.672Z,24.75
2023-05-04T12:46:57.420Z,23.67
2023-05-04T12:49:26.331Z,24.33
2023-05-04T12:51:53.939Z,22.44
2023-05-04T12:54:21.541Z,21.92
2023-05-04T12:56:49.106Z,21.76
2023-05-04T12:59:16.639Z,20.89
2023-05-04T13:01:44.305Z,20.56
2023-05-04T13:04:11.941Z,21.24
2023-05-04T13:06:42.410Z,19.98
2023-05-04T13:09:10.189Z,19.11
2023-05-04T13:11:37.701Z,19.06
2023-05-04T13:14:05.482Z,19.13
2023-05-04T13:16:33.608Z,19.08
2023-05-04T13:19:01.162Z,19.97
2023-05-04T13:21:28.725Z,19.57
2023-05-04T13:23:59.182Z,19.36
2023-05-04T13:26:26.967Z,19.43
2023-05-04T13:28:54.492Z,19.09
2023-05-04T13:31:22.078Z,18.42
2023-05-04T13:33:50.417Z,17.88
2023-05-04T13:36:18.145Z,18.99
2023-05-04T13:38:45.723Z,19.75
2023-05-04T13:41:14.637Z,19.12
2023-05-04T13:43:42.176Z,17.40
2023-05-04T13:46:09.804Z,17.63
2023-05-04T13:48:37.399Z,17.81
2023-05-04T13:51:05.387Z,17.72
2023-05-04T13:53:32.897Z,17.76
2023-05-04T13:56:00.588Z,17.35
2023-05-04T13:58:29.463Z,16.63
2023-05-04T14:00:57.702Z,16.02
2023-05-04T14:03:25.480Z,15.73
2023-05-04T14:05:53.722Z,16.31
2023-05-04T14:08:21.330Z,16.00
2023-05-04T14:10:48.832Z,15.92
2023-05-04T14:13:16.947Z,16.33
2023-05-04T14:15:46.229Z,15.36
2023-05-04T14:18:13.850Z,16.05
2023-05-04T14:20:41.405Z,15.24
2023-05-04T14:23:08.958Z,15.07
2023-05-04T14:25:36.634Z,14.50
2023-05-04T14:28:04.405Z,14.09
2023-05-04T14:30:33.689Z,14.09
2023-05-04T14:33:03.648Z,13.52
2023-05-04T14:35:31.371Z,13.45
2023-05-04T14:37:58.937Z,13.58
2023-05-04T14:40:26.456Z,13.63
2023-05-04T14:42:54.022Z,12.78
2023-05-04T14:45:21.911Z,13.95
2023-05-04T14:47:49.460Z,14.26
2023-05-04T14:50:18.627Z,13.74
2023-05-04T14:52:46.212Z,13.88
2023-05-04T14:55:14.248Z,14.09
2023-05-04T14:57:42.035Z,13.54
2023-05-04T15:00:11.190Z,12.49
2023-05-04T15:02:39.314Z,11.95
2023-05-04T15:05:09.692Z,11.92
2023-05-04T15:07:38.642Z,12.11
2023-05-04T15:10:08.157Z,12.01
2023-05-04T15:12:36.183Z,11.60
2023-05-04T15:15:03.812Z,11.40
2023-05-04T15:17:31.702Z,11.56
2023-05-04T15:19:59.283Z,11.97
2023-05-04T15:22:26.822Z,12.70
2023-05-04T15:24:56.557Z,13.99
2023-05-04T15:27:24.139Z,15.22
2023-05-04T15:29:51.838Z,15.46
2023-05-04T15:32:19.413Z,15.38
2023-05-04T15:34:57.427Z,16.98
2023-05-04T15:37:31.802Z,16.11
2023-05-04T15:40:02.501Z,16.12
2023-05-04T15:42:30.450Z,16.08
2023-05-04T15:44:58.126Z,15.75
2023-05-04T15:47:25.724Z,15.85
2023-05-04T15:49:53.300Z,15.39
2023-05-04T15:52:20.808Z,14.97
2023-05-04T15:54:48.345Z,14.48
2023-05-04T15:57:17.184Z,14.65
2023-05-04T15:59:47.447Z,15.38
2023-05-04T16:02:15.085Z,15.93
2023-05-04T16:04:42.663Z,17.48
2023-05-04T16:07:10.980Z,17.83
2023-05-04T16:09:38.528Z,17.13
2023-05-04T16:12:06.707Z,15.99
2023-05-04T16:14:35.977Z,15.34
2023-05-04T16:17:03.633Z,14.23
2023-05-04T16:19:31.439Z,12.99
2023-05-04T16:21:59.140Z,13.51
2023-05-04T16:24:26.762Z,13.22
2023-05-04T16:26:54.371Z,12.96
2023-05-04T16:29:21.966Z,13.82
2023-05-04T16:31:50.877Z,13.78
2023-05-04T16:34:18.452Z,13.78
2023-05-04T16:36:46.019Z,12.92
2023-05-04T16:39:14.479Z,13.64
2023-05-04T16:41:46.449Z,13.39
2023-05-04T16:44:13.849Z,13.30
2023-05-04T16:46:41.450Z,12.98
2023-05-04T16:49:11.889Z,13.33
2023-05-04T16:51:41.832Z,13.16
2023-05-04T16:54:09.453Z,13.32
2023-05-04T16:56:37.267Z,12.77
2023-05-04T16:59:05.605Z,14.54
2023-05-04T17:01:33.730Z,14.92
2023-05-04T17:04:01.564Z,15.10
2023-05-04T17:06:31.016Z,15.01
2023-05-04T17:08:58.561Z,15.87
2023-05-04T17:11:26.745Z,16.66
2023-05-04T17:13:54.499Z,17.03
2023-05-04T17:16:22.030Z,17.67
2023-05-04T17:18:49.808Z,18.43
2023-05-04T17:21:17.566Z,18.51
2023-05-04T17:23:46.466Z,17.83
2023-05-04T17:26:14.019Z,17.24
2023-05-04T17:28:41.592Z,17.58
2023-05-04T17:31:10.997Z,16.87
2023-05-04T17:33:38.807Z,17.15
2023-05-04T17:36:07.657Z,18.48
2023-05-04T17:38:35.507Z,18.72
2023-05-04T17:41:04.575Z,18.83
2023-05-04T17:43:32.267Z,18.78
2023-05-04T17:46:00.214Z,20.24
2023-05-04T17:48:28.245Z,19.42
2023-05-04T17:50:56.256Z,20.78
2023-05-04T17:53:23.925Z,22.30
2023-05-04T17:55:51.473Z,22.87
2023-05-04T17:58:20.457Z,24.78
2023-05-04T18:00:49.091Z,24.53
2023-05-04T18:03:18.240Z,25.15
2023-05-04T18:05:46.670Z,25.22
2023-05-04T18:08:14.742Z,25.62
2023-05-04T18:10:42.414Z,26.79
2023-05-04T18:13:10.087Z,28.26
2023-05-04T18:15:39.276Z,29.84
2023-05-04T18:18:06.891Z,32.08
2023-05-04T18:20:34.587Z,32.92
2023-05-04T18:23:02.109Z,34.50
2023-05-04T18:25:29.689Z,35.86
2023-05-04T18:27:58.544Z,36.82
2023-05-04T18:30:26.677Z,37.63
2023-05-04T18:32:55.770Z,38.92
2023-05-04T18:35:23.352Z,40.31
2023-05-04T18:37:50.922Z,41.12
2023-05-04T18:40:18.566Z,42.35
2023-05-04T18:42:46.193Z,42.83
2023-05-04T18:45:13.922Z,43.55
2023-05-04T18:47:41.548Z,44.75
2023-05-04T18:50:11.572Z,45.53
2023-05-04T18:52:39.194Z,46.42
2023-05-04T18:55:07.965Z,46.44
2023-05-04T18:57:35.628Z,47.25
2023-05-04T19:00:03.308Z,47.64
2023-05-04T19:02:31.467Z,48.74
2023-05-04T19:04:59.187Z,49.51
2023-05-04T19:07:28.033Z,49.99
2023-05-04T19:09:56.189Z,50.02
2023-05-04T19:12:23.803Z,50.64
2023-05-04T19:14:51.836Z,52.37
2023-05-04T19:17:19.576Z,53.32
2023-05-04T19:19:47.134Z,54.11
2023-05-04T19:22:15.668Z,54.36
2023-05-04T19:24:44.731Z,54.50
2023-05-04T19:27:12.282Z,55.61
2023-05-04T19:29:39.861Z,57.54
2023-05-04T19:32:19.886Z,57.42
2023-05-04T19:34:51.778Z,57.36
2023-05-04T19:37:19.405Z,56.88
2023-05-04T19:39:48.363Z,58.42
2023-05-04T19:42:16.376Z,58.43
2023-05-04T19:44:43.933Z,58.64
2023-05-04T19:47:11.645Z,59.65
2023-05-04T19:49:39.572Z,59.78
2023-05-04T19:52:07.355Z,59.72
2023-05-04T19:54:35.591Z,60.38
2023-05-04T19:57:04.677Z,60.26
2023-05-04T19:59:32.231Z,60.60
2023-05-04T20:02:00.049Z,60.70
2023-05-04T20:04:27.665Z,61.00
2023-05-04T20:06:55.228Z,61.78
2023-05-04T20:09:22.801Z,61.74
2023-05-04T20:11:50.314Z,62.37
2023-05-04T20:14:19.226Z,62.45
2023-05-04T20:16:46.971Z,62.99
2023-05-04T20:19:14.895Z,63.46
2023-05-04T20:21:42.472Z,63.16
2023-05-04T20:24:11.846Z,63.56
2023-05-04T20:26:39.452Z,63.66
2023-05-04T20:29:07.034Z,63.72
2023-05-04T20:31:36.255Z,64.15
2023-05-04T20:34:03.828Z,64.42
2023-05-04T20:36:31.555Z,64.14
2023-05-04T20:38:59.897Z,64.15
2023-05-04T20:41:27.480Z,64.27
2023-05-04T20:43:55.015Z,64.74
2023-05-04T20:46:22.886Z,65.14
2023-05-04T20:48:51.875Z,65.19
2023-05-04T20:51:19.474Z,64.82
2023-05-04T20:53:47.790Z,65.61
2023-05-04T20:56:15.561Z,66.84
2023-05-04T20:58:43.058Z,67.51
2023-05-04T21:01:10.666Z,67.54
2023-05-04T21:03:38.293Z,67.34
2023-05-04T21:06:07.536Z,67.08
2023-05-04T21:08:35.062Z,67.36
2023-05-04T21:11:02.581Z,67.45
2023-05-04T21:13:30.294Z,67.09
2023-05-04T21:15:59.348Z,67.94
2023-05-04T21:18:27.013Z,68.44
2023-05-04T21:20:54.731Z,68.28
2023-05-04T21:23:24.931Z,67.70
2023-05-04T21:26:00.780Z,68.00
2023-05-04T21:28:28.456Z,68.47
2023-05-04T21:30:56.084Z,69.02
2023-05-04T21:33:23.832Z,69.00
2023-05-04T21:35:51.551Z,69.59
2023-05-04T21:38:21.671Z,69.65
2023-05-04T21:40:51.110Z,70.04
2023-05-04T21:43:18.665Z,70.15
2023-05-04T21:45:46.173Z,70.49
2023-05-04T21:48:13.686Z,71.13
2023-05-04T21:50:41.243Z,71.05
2023-05-04T21:53:08.819Z,71.69
2023-05-04T21:55:36.472Z,72.08
2023-05-04T21:58:05.390Z,72.18
2023-05-04T22:00:33.103Z,72.61
2023-05-04T22:03:01.043Z,72.26
2023-05-04T22:05:28.640Z,72.40
2023-05-04T22:07:56.247Z,72.77
2023-05-04T22:10:24.014Z,73.04
2023-05-04T22:12:51.842Z,73.20
2023-05-04T22:15:20.779Z,73.73
2023-05-04T22:17:48.412Z,74.10
2023-05-04T22:20:16.262Z,74.24
2023-05-04T22:22:44.077Z,74.16
2023-05-04T22:25:11.833Z,74.76
2023-05-04T22:27:39.350Z,74.91
2023-05-04T22:30:08.776Z,74.79
2023-05-04T22:32:37.889Z,75.06
2023-05-04T22:35:06.223Z,75.39
2023-05-04T22:37:33.788Z,75.61
2023-05-04T22:40:04.357Z,75.91
2023-05-04T22:42:32.343Z,76.39
2023-05-04T22:44:59.927Z,77.10
2023-05-04T22:47:27.529Z,77.06
2023-05-04T22:49:56.910Z,77.28
2023-05-04T22:52:25.233Z,77.50
2023-05-04T22:54:52.887Z,77.46
2023-05-04T22:57:20.697Z,78.33
2023-05-04T22:59:48.330Z,79.49
2023-05-04T23:02:16.268Z,79.82
2023-05-04T23:04:43.961Z,80.07
2023-05-04T23:07:13.015Z,80.16
2023-05-04T23:09:43.150Z,80.33
2023-05-04T23:12:10.705Z,80.28
2023-05-04T23:14:38.459Z,80.37
2023-05-04T23:17:06.081Z,80.60
2023-05-04T23:19:33.666Z,80.82
2023-05-04T23:22:01.273Z,80.90
2023-05-04T23:24:30.192Z,81.07
2023-05-04T23:26:58.656Z,81.13
2023-05-04T23:29:26.307Z,81.66
2023-05-04T23:31:54.145Z,82.23
2023-05-04T23:34:21.893Z,81.98
2023-05-04T23:36:49.603Z,82.78
2023-05-04T23:39:17.255Z,82.65
2023-05-04T23:41:46.153Z,83.28
2023-05-04T23:44:13.777Z,83.36
2023-05-04T23:46:41.326Z,83.27
2023-05-04T23:49:08.853Z,83.99
2023-05-04T23:51:36.370Z,84.13
2023-05-04T23:54:04.176Z,83.97
2023-05-04T23:56:32.415Z,84.22
2023-05-04T23:59:01.599Z,84.50
